Ana Sayfa
METAR-TAF:

METAR-TAF

Havaalanları :

Nassau, Bahamalar

Enlem: 25-03N, Boylam: 077-28W, yükseklik: 3 m

Güncel hava durumu gözlemi

Rapor saat 14:00 UTC de 2 saat ve 14 dakika önce yapıldı.
Rüzgar kuzeydoğudan 3 kt, kuzey/kuzeybatı ve güneydoğu arasında değişken
Sıcaklık 24°C
Nem 57%
Basınç 1016 hPa
Görüş mesafesi 10 km veya daha fazla
4000 ft yükseklikte parçalı bulutlu

METAR: MYNN 041400Z 05003KT 340V130 9999 SCT040 24/15 A3001

Saat: 12:14 (16:14 UTC)

Tahmin

Rapor saat 10:40 UTC de 5 saat ve 34 dakika önce yapıldı.
Ayın 04'si saat 12 UTC'den ayın 05'si saat 12 UTC'ye kadar geçerli Tahmin
Rüzgar değişken yönden 2 kt
Görüş mesafesi 10 km veya daha fazla
1500 m altında bulut yok ve kümülonimbus yok
Dönüşüyor
ayın 04'si saat 12 UTC'den ayın 04'si saat 14 UTC'ye kadar
Rüzgar kuzey/kuzeydoğudan 6 kt
2500 ft yükseklikte az bulutlu

TAF: MYNN 041040Z 0412/0512 VRB02KT CAVOK BECMG 0412/0414 03006KT FEW025

4.000'den fazla havaalanı için hava durumu gözlemleri ve tahminleri (METAR ve TAF raporları).

Kullanılabilir istasyonlar harita üzerinde sarı ve kırmızı noktalarla gösterilir.

İstasyonun adını görmek için fareyi noktanın üzerinde gezdirin.

Sonrasında hava gözlem ve tahminlerini görmek için tıklayın.

Haritayı değiştirmek için: yaklaştırmak için siyah artı işaretli yeşil düğmeye ve uzaklaştırmak için de eksi işaretli düğmeye hızla tıklayın; bitişik haritalar için yeşil okları kullanın.


METAR-TAF: